createdAt,value
2018-03-27T00:02:23.114Z,16.08
2018-03-27T00:04:51.308Z,16.75
2018-03-27T00:07:20.196Z,15.98
2018-03-27T00:09:49.072Z,16.85
2018-03-27T00:12:17.942Z,16.25
2018-03-27T00:14:46.088Z,16.65
2018-03-27T00:17:14.328Z,16.75
2018-03-27T00:19:43.214Z,16.33
2018-03-27T00:22:12.087Z,18.40
2018-03-27T00:24:42.106Z,16.80
2018-03-27T00:27:10.628Z,18.45
2018-03-27T00:29:50.713Z,17.67
2018-03-27T00:32:30.664Z,18.10
2018-03-27T00:35:10.661Z,19.20
2018-03-27T00:37:51.491Z,18.60
2018-03-27T00:40:31.590Z,18.02
2018-03-27T00:43:10.404Z,18.80
2018-03-27T00:45:39.273Z,17.98
2018-03-27T00:48:08.171Z,18.67
2018-03-27T00:50:37.041Z,18.35
2018-03-27T00:53:05.164Z,18.62
2018-03-27T00:55:33.285Z,19.00
2018-03-27T00:58:01.400Z,17.08
2018-03-27T01:00:29.530Z,17.90
2018-03-27T01:02:57.640Z,17.95
2018-03-27T01:05:25.747Z,19.27
2018-03-27T01:07:53.889Z,18.37
2018-03-27T01:10:22.047Z,18.23
2018-03-27T01:12:50.923Z,18.70
2018-03-27T01:15:19.803Z,19.60
2018-03-27T01:17:47.923Z,18.30
2018-03-27T01:20:16.084Z,18.23
2018-03-27T01:22:44.195Z,17.52
2018-03-27T01:25:12.300Z,17.87
2018-03-27T01:27:41.180Z,16.90
2018-03-27T01:30:09.268Z,18.85
2018-03-27T01:32:38.124Z,18.55
2018-03-27T01:35:06.233Z,18.40
2018-03-27T01:37:35.103Z,18.58
2018-03-27T01:40:03.196Z,18.25
2018-03-27T01:42:32.056Z,19.33
2018-03-27T01:45:00.238Z,18.35
2018-03-27T01:47:28.324Z,19.25
2018-03-27T01:49:57.196Z,18.95
2018-03-27T01:52:25.317Z,18.83
2018-03-27T01:54:53.428Z,18.30
2018-03-27T01:57:21.526Z,19.77
2018-03-27T01:59:50.415Z,19.17
2018-03-27T02:02:19.403Z,17.95
2018-03-27T02:04:48.272Z,19.23
2018-03-27T02:07:16.384Z,17.75
2018-03-27T02:09:44.478Z,19.65
2018-03-27T02:12:18.360Z,20.12
2018-03-27T02:14:52.121Z,19.48
2018-03-27T02:17:26.058Z,20.40
2018-03-27T02:19:59.815Z,19.83
2018-03-27T02:22:27.910Z,22.27
2018-03-27T02:24:56.048Z,20.73
2018-03-27T02:27:24.135Z,20.05
2018-03-27T02:29:52.226Z,20.05
2018-03-27T02:32:20.337Z,19.62
2018-03-27T02:34:49.263Z,21.70
2018-03-27T02:37:17.313Z,20.10
2018-03-27T02:39:45.452Z,20.50
2018-03-27T02:42:14.329Z,21.73
2018-03-27T02:44:42.435Z,19.60
2018-03-27T02:47:10.522Z,20.85
2018-03-27T02:49:38.663Z,19.95
2018-03-27T02:52:07.531Z,21.02
2018-03-27T02:54:35.717Z,20.50
2018-03-27T02:57:03.735Z,22.00
2018-03-27T02:59:31.857Z,20.80
2018-03-27T03:02:00.725Z,22.35
2018-03-27T03:04:28.843Z,23.05
2018-03-27T03:06:58.206Z,23.17
2018-03-27T03:09:26.313Z,23.38
2018-03-27T03:11:55.192Z,24.12
2018-03-27T03:14:24.075Z,24.52
2018-03-27T03:16:52.941Z,24.92
2018-03-27T03:19:21.049Z,23.87
2018-03-27T03:21:50.039Z,23.35
2018-03-27T03:24:18.921Z,22.70
2018-03-27T03:26:48.813Z,22.40
2018-03-27T03:29:16.903Z,25.08
2018-03-27T03:31:45.777Z,23.58
2018-03-27T03:34:13.881Z,23.65
2018-03-27T03:36:42.012Z,24.70
2018-03-27T03:39:10.124Z,24.87
2018-03-27T03:41:39.008Z,25.37
2018-03-27T03:44:07.924Z,24.52
2018-03-27T03:46:36.047Z,23.42
2018-03-27T03:49:04.142Z,24.37
2018-03-27T03:51:33.028Z,24.20
2018-03-27T03:54:01.904Z,24.75
2018-03-27T03:56:30.026Z,24.17
2018-03-27T03:58:58.171Z,22.33
2018-03-27T04:01:27.044Z,23.75
2018-03-27T04:03:55.181Z,24.25
2018-03-27T04:06:23.292Z,24.02
2018-03-27T04:08:52.168Z,22.98
2018-03-27T04:11:20.303Z,23.65
2018-03-27T04:13:48.410Z,23.05
2018-03-27T04:16:16.548Z,23.12
2018-03-27T04:18:44.683Z,22.95
2018-03-27T04:21:13.553Z,23.85
2018-03-27T04:23:41.707Z,24.95
2018-03-27T04:26:09.865Z,22.42
2018-03-27T04:28:37.939Z,23.33
2018-03-27T04:31:06.040Z,24.27
2018-03-27T04:33:34.217Z,23.55
2018-03-27T04:36:02.340Z,23.55
2018-03-27T04:38:30.449Z,22.92
2018-03-27T04:41:00.066Z,22.87
2018-03-27T04:43:28.969Z,22.90
2018-03-27T04:45:57.863Z,23.90
2018-03-27T04:48:26.735Z,23.05
2018-03-27T04:50:54.840Z,23.40
2018-03-27T04:53:22.959Z,24.33
2018-03-27T04:55:51.079Z,24.77
2018-03-27T04:58:19.197Z,25.58
2018-03-27T05:00:47.303Z,25.23
2018-03-27T05:03:16.191Z,23.98
2018-03-27T05:05:45.103Z,24.10
2018-03-27T05:08:13.211Z,24.08
2018-03-27T05:10:41.324Z,25.70
2018-03-27T05:13:09.455Z,24.33
2018-03-27T05:15:37.903Z,23.90
2018-03-27T05:18:06.011Z,26.08
2018-03-27T05:20:34.123Z,25.40
2018-03-27T05:23:03.026Z,25.08
2018-03-27T05:25:31.921Z,24.42
2018-03-27T05:28:00.794Z,24.55
2018-03-27T05:30:29.671Z,24.27
2018-03-27T05:32:57.790Z,24.23
2018-03-27T05:35:25.909Z,24.83
2018-03-27T05:37:54.048Z,24.55
2018-03-27T05:40:22.185Z,24.83
2018-03-27T05:42:51.067Z,23.62
2018-03-27T05:45:19.945Z,24.67
2018-03-27T05:47:48.140Z,24.02
2018-03-27T05:50:17.020Z,23.95
2018-03-27T05:52:45.919Z,24.50
2018-03-27T05:55:14.836Z,25.02
2018-03-27T05:57:42.954Z,23.60
2018-03-27T06:00:11.068Z,22.40
2018-03-27T06:02:39.195Z,23.33
2018-03-27T06:05:07.339Z,23.58
2018-03-27T06:07:35.418Z,23.75
2018-03-27T06:10:03.641Z,22.80
2018-03-27T06:12:32.522Z,23.20
2018-03-27T06:15:01.418Z,22.83
2018-03-27T06:17:30.396Z,23.33
2018-03-27T06:19:58.444Z,23.33
2018-03-27T06:22:26.550Z,23.15
2018-03-27T06:24:55.478Z,23.42
2018-03-27T06:27:23.624Z,24.33
2018-03-27T06:29:51.724Z,23.70
2018-03-27T06:32:19.856Z,24.55
2018-03-27T06:34:48.738Z,24.10
2018-03-27T06:37:17.632Z,23.60
2018-03-27T06:39:46.536Z,24.02
2018-03-27T06:42:15.468Z,23.25
2018-03-27T06:44:43.600Z,22.95
2018-03-27T06:47:12.531Z,23.10
2018-03-27T06:49:40.638Z,22.95
2018-03-27T06:52:08.752Z,22.52
2018-03-27T06:54:36.898Z,23.48
2018-03-27T06:57:05.796Z,22.58
2018-03-27T06:59:34.845Z,23.17
2018-03-27T07:02:03.006Z,22.42
2018-03-27T07:04:31.114Z,22.58
2018-03-27T07:06:59.316Z,23.92
2018-03-27T07:09:28.219Z,22.52
2018-03-27T07:11:56.388Z,23.87
2018-03-27T07:14:24.555Z,22.67
2018-03-27T07:16:52.698Z,23.70
2018-03-27T07:19:20.788Z,23.12
2018-03-27T07:21:49.668Z,23.62
2018-03-27T07:24:17.767Z,24.10
2018-03-27T07:26:46.027Z,24.77
2018-03-27T07:29:14.927Z,25.48
2018-03-27T07:31:43.095Z,25.15
2018-03-27T07:34:11.224Z,24.23
2018-03-27T07:36:39.444Z,24.12
2018-03-27T07:39:08.437Z,25.05
2018-03-27T07:41:37.308Z,23.98
2018-03-27T07:44:06.180Z,25.08
2018-03-27T07:46:34.323Z,24.63
2018-03-27T07:49:02.486Z,24.50
2018-03-27T07:51:30.600Z,26.12
2018-03-27T07:53:58.799Z,25.30
2018-03-27T07:56:27.708Z,24.25
2018-03-27T07:58:55.835Z,23.98
2018-03-27T08:01:23.947Z,25.30
2018-03-27T08:03:52.066Z,25.05
2018-03-27T08:06:20.189Z,23.45
2018-03-27T08:08:48.308Z,24.40
2018-03-27T08:11:16.541Z,24.70
2018-03-27T08:13:44.681Z,24.15
2018-03-27T08:16:13.557Z,24.75
2018-03-27T08:18:43.308Z,24.60
2018-03-27T08:21:11.487Z,24.55
2018-03-27T08:23:39.615Z,24.77
2018-03-27T08:26:07.721Z,24.48
2018-03-27T08:28:36.619Z,25.17
2018-03-27T08:31:04.733Z,25.65
2018-03-27T08:33:32.850Z,24.48
2018-03-27T08:36:01.775Z,25.00
2018-03-27T08:38:29.917Z,23.50
2018-03-27T08:40:58.807Z,23.08
2018-03-27T08:43:27.687Z,22.65
2018-03-27T08:45:56.666Z,22.25
2018-03-27T08:48:24.745Z,22.67
2018-03-27T08:50:53.635Z,22.33
2018-03-27T08:53:22.554Z,22.23
2018-03-27T08:55:50.675Z,22.30
2018-03-27T08:58:18.823Z,22.13
2018-03-27T09:00:46.946Z,22.33
2018-03-27T09:03:15.838Z,22.70
2018-03-27T09:05:44.747Z,21.42
2018-03-27T09:08:12.883Z,22.77
2018-03-27T09:10:42.509Z,22.60
2018-03-27T09:13:11.393Z,22.40
2018-03-27T09:15:40.317Z,23.38
2018-03-27T09:18:08.463Z,23.42
2018-03-27T09:20:37.356Z,22.90
2018-03-27T09:23:06.241Z,23.70
2018-03-27T09:25:35.161Z,23.33
2018-03-27T09:28:03.287Z,22.85
2018-03-27T09:30:31.439Z,23.05
2018-03-27T09:32:59.564Z,22.67
2018-03-27T09:35:27.771Z,22.42
2018-03-27T09:37:56.026Z,23.25
2018-03-27T09:40:24.167Z,23.20
2018-03-27T09:42:52.285Z,23.70
2018-03-27T09:45:20.406Z,23.08
2018-03-27T09:47:48.561Z,24.58
2018-03-27T09:50:16.686Z,23.25
2018-03-27T09:52:44.813Z,23.23
2018-03-27T09:55:12.934Z,23.65
2018-03-27T09:57:41.115Z,23.73
2018-03-27T10:00:09.282Z,23.60
2018-03-27T10:02:37.390Z,22.90
2018-03-27T10:05:05.514Z,22.83
2018-03-27T10:07:33.656Z,22.48
2018-03-27T10:10:03.402Z,23.27
2018-03-27T10:12:31.576Z,22.05
2018-03-27T10:14:59.734Z,20.83
2018-03-27T10:17:28.618Z,21.25
2018-03-27T10:19:57.524Z,19.75
2018-03-27T10:22:26.442Z,20.60
2018-03-27T10:24:54.628Z,17.87
2018-03-27T10:27:22.747Z,18.50
2018-03-27T10:29:51.662Z,18.65
2018-03-27T10:32:19.858Z,17.98
2018-03-27T10:34:47.964Z,17.67
2018-03-27T10:37:16.110Z,16.98
2018-03-27T10:39:44.240Z,18.17
2018-03-27T10:42:12.427Z,17.65
2018-03-27T10:44:40.544Z,18.87
2018-03-27T10:47:08.784Z,17.73
2018-03-27T10:49:36.940Z,17.70
2018-03-27T10:52:05.128Z,18.08
2018-03-27T10:54:33.244Z,17.90
2018-03-27T10:57:01.370Z,18.20
2018-03-27T10:59:29.512Z,18.70
2018-03-27T11:01:58.389Z,17.83
2018-03-27T11:04:26.604Z,17.12
2018-03-27T11:06:54.792Z,17.60
2018-03-27T11:09:23.894Z,16.42
2018-03-27T11:11:51.999Z,17.42
2018-03-27T11:14:20.139Z,16.65
2018-03-27T11:16:48.284Z,16.60
2018-03-27T11:19:16.424Z,15.82
2018-03-27T11:21:44.651Z,16.05
2018-03-27T11:24:12.776Z,16.75
2018-03-27T11:26:40.932Z,16.37
2018-03-27T11:29:09.052Z,16.73
2018-03-27T11:31:37.191Z,16.45
2018-03-27T11:34:06.838Z,17.30
2018-03-27T11:36:34.960Z,16.35
2018-03-27T11:39:03.092Z,16.08
2018-03-27T11:41:31.229Z,13.27
2018-03-27T11:44:00.112Z,14.20
2018-03-27T11:46:28.997Z,14.98
2018-03-27T11:48:57.969Z,14.23
2018-03-27T11:51:26.118Z,14.63
2018-03-27T11:53:54.239Z,15.00
2018-03-27T11:56:22.355Z,15.27
2018-03-27T11:58:50.488Z,15.02
2018-03-27T12:01:19.388Z,14.43
2018-03-27T12:03:48.280Z,15.07
2018-03-27T12:06:17.223Z,14.35
2018-03-27T12:08:45.343Z,14.65
2018-03-27T12:11:14.240Z,14.32
2018-03-27T12:13:43.167Z,14.25
2018-03-27T12:16:11.329Z,14.63
2018-03-27T12:18:39.487Z,14.23
2018-03-27T12:21:07.641Z,14.70
2018-03-27T12:23:36.545Z,14.60
2018-03-27T12:26:05.468Z,15.20
2018-03-27T12:28:33.715Z,13.70
2018-03-27T12:31:01.919Z,13.98
2018-03-27T12:33:30.067Z,13.70
2018-03-27T12:35:58.206Z,13.65
2018-03-27T12:38:27.837Z,12.68
2018-03-27T12:40:56.849Z,12.68
2018-03-27T12:43:25.029Z,12.82
2018-03-27T12:45:53.179Z,13.10
2018-03-27T12:48:22.065Z,12.63
2018-03-27T12:50:51.067Z,11.80
2018-03-27T12:53:19.238Z,13.70
2018-03-27T12:55:47.299Z,13.57
2018-03-27T12:58:16.227Z,11.73
2018-03-27T13:00:44.343Z,12.73
2018-03-27T13:03:13.263Z,12.48
2018-03-27T13:05:41.411Z,13.05
2018-03-27T13:08:09.563Z,12.75
2018-03-27T13:10:37.719Z,12.52
2018-03-27T13:13:05.869Z,12.77
2018-03-27T13:15:33.975Z,11.48
2018-03-27T13:18:02.256Z,11.52
2018-03-27T13:20:30.380Z,11.80
2018-03-27T13:22:58.565Z,11.93
2018-03-27T13:25:26.684Z,10.68
2018-03-27T13:27:54.814Z,10.52
2018-03-27T13:30:22.942Z,10.35
2018-03-27T13:32:51.858Z,10.00
2018-03-27T13:35:20.050Z,9.30
2018-03-27T13:37:48.166Z,9.88
2018-03-27T13:40:16.386Z,9.38
2018-03-27T13:42:44.488Z,7.37
2018-03-27T13:45:12.612Z,6.47
2018-03-27T13:47:41.508Z,6.97
2018-03-27T13:50:10.365Z,6.53
2018-03-27T13:52:38.576Z,5.55
2018-03-27T13:55:07.571Z,4.93
2018-03-27T13:57:36.448Z,5.03
2018-03-27T14:00:06.200Z,4.80
2018-03-27T14:02:34.302Z,4.10
2018-03-27T14:05:02.404Z,3.92
2018-03-27T14:07:31.304Z,4.28
2018-03-27T14:10:00.212Z,4.22
2018-03-27T14:12:28.356Z,3.83
2018-03-27T14:14:57.301Z,3.85
2018-03-27T14:17:26.116Z,3.75
2018-03-27T14:19:54.240Z,4.40
2018-03-27T14:22:22.371Z,4.22
2018-03-27T14:24:51.254Z,4.97
2018-03-27T14:27:20.183Z,4.70
2018-03-27T14:29:48.379Z,4.93
2018-03-27T14:32:16.484Z,4.82
2018-03-27T14:34:44.584Z,5.15
2018-03-27T14:37:13.464Z,4.90
2018-03-27T14:39:41.680Z,5.00
2018-03-27T14:42:09.828Z,4.70
2018-03-27T14:44:38.753Z,4.70
2018-03-27T14:47:07.607Z,4.32
2018-03-27T14:49:36.515Z,4.72
2018-03-27T14:52:04.637Z,4.43
2018-03-27T14:54:32.751Z,4.30
2018-03-27T14:57:01.667Z,4.10
2018-03-27T14:59:29.798Z,3.87
2018-03-27T15:01:58.725Z,4.03
2018-03-27T15:04:26.832Z,3.83
2018-03-27T15:06:54.943Z,3.70
2018-03-27T15:09:23.939Z,3.12
2018-03-27T15:11:52.942Z,3.50
2018-03-27T15:14:21.067Z,3.12
2018-03-27T15:16:49.286Z,2.95
2018-03-27T15:19:17.389Z,3.25
2018-03-27T15:21:45.501Z,3.05
2018-03-27T15:24:15.196Z,2.92
2018-03-27T15:26:43.275Z,3.00
2018-03-27T15:29:12.899Z,3.10
2018-03-27T15:31:41.801Z,2.78
2018-03-27T15:34:10.691Z,2.80
2018-03-27T15:36:39.683Z,2.85
2018-03-27T15:39:08.578Z,2.80
2018-03-27T15:41:36.781Z,2.50
2018-03-27T15:44:04.953Z,2.85
2018-03-27T15:46:33.065Z,2.53
2018-03-27T15:49:01.167Z,2.80
2018-03-27T15:51:30.114Z,2.70
2018-03-27T15:53:58.233Z,2.67
2018-03-27T15:56:27.102Z,2.70
2018-03-27T15:58:55.987Z,2.72
2018-03-27T16:01:24.890Z,2.72
2018-03-27T16:03:53.794Z,2.47
2018-03-27T16:06:21.899Z,2.55
2018-03-27T16:08:50.009Z,2.33
2018-03-27T16:11:18.927Z,3.58
2018-03-27T16:13:47.054Z,2.80
2018-03-27T16:16:15.210Z,2.62
2018-03-27T16:18:43.310Z,2.37
2018-03-27T16:21:11.415Z,2.58
2018-03-27T16:23:39.695Z,2.87
2018-03-27T16:26:08.579Z,2.53
2018-03-27T16:28:37.468Z,2.90
2018-03-27T16:31:06.382Z,3.10
2018-03-27T16:33:34.504Z,2.85
2018-03-27T16:36:04.140Z,2.70
2018-03-27T16:38:33.011Z,3.00
2018-03-27T16:41:01.894Z,3.15
2018-03-27T16:43:30.142Z,2.72
2018-03-27T16:45:58.255Z,3.00
2018-03-27T16:48:27.131Z,3.10
2018-03-27T16:50:55.432Z,3.28
2018-03-27T16:53:24.422Z,3.10
2018-03-27T16:55:53.320Z,4.50
2018-03-27T16:58:22.193Z,4.00
2018-03-27T17:00:51.112Z,4.10
2018-03-27T17:03:19.244Z,4.10
2018-03-27T17:05:47.402Z,3.67
2018-03-27T17:08:15.628Z,3.90
2018-03-27T17:10:43.740Z,3.85
2018-03-27T17:13:11.896Z,4.10
2018-03-27T17:15:40.017Z,4.37
2018-03-27T17:18:08.116Z,4.30
2018-03-27T17:20:36.238Z,4.47
2018-03-27T17:23:04.348Z,4.68
2018-03-27T17:25:33.212Z,4.53
2018-03-27T17:28:01.338Z,5.35
2018-03-27T17:30:29.494Z,4.50
2018-03-27T17:32:58.384Z,5.30
2018-03-27T17:35:26.504Z,4.35
2018-03-27T17:37:54.601Z,4.45
2018-03-27T17:40:23.543Z,5.10
2018-03-27T17:42:51.715Z,4.78
2018-03-27T17:45:20.594Z,5.32
2018-03-27T17:47:48.725Z,5.53
2018-03-27T17:50:16.849Z,5.75
2018-03-27T17:52:45.716Z,6.40
2018-03-27T17:55:14.604Z,6.20
2018-03-27T17:57:43.475Z,6.93
2018-03-27T18:00:12.394Z,6.80
2018-03-27T18:02:40.499Z,7.30
2018-03-27T18:05:08.620Z,7.50
2018-03-27T18:07:37.491Z,7.85
2018-03-27T18:10:06.411Z,8.30
2018-03-27T18:12:35.419Z,8.05
2018-03-27T18:15:03.577Z,7.97
2018-03-27T18:17:32.472Z,8.38
2018-03-27T18:20:01.335Z,8.15
2018-03-27T18:22:30.991Z,8.82
2018-03-27T18:24:59.099Z,8.93
2018-03-27T18:27:27.318Z,9.25
2018-03-27T18:29:57.084Z,9.45
2018-03-27T18:32:25.227Z,9.85
2018-03-27T18:34:53.347Z,10.63
2018-03-27T18:37:21.498Z,10.65
2018-03-27T18:39:49.589Z,10.32
2018-03-27T18:42:18.496Z,11.27
2018-03-27T18:44:47.418Z,11.15
2018-03-27T18:47:15.527Z,11.65
2018-03-27T18:49:43.648Z,11.12
2018-03-27T18:52:11.803Z,12.52
2018-03-27T18:54:40.711Z,12.07
2018-03-27T18:57:08.879Z,12.50
2018-03-27T18:59:37.007Z,13.43
2018-03-27T19:02:05.257Z,13.40
2018-03-27T19:04:33.423Z,12.95
2018-03-27T19:07:01.535Z,14.10
2018-03-27T19:09:29.651Z,14.02
2018-03-27T19:11:57.763Z,14.95
2018-03-27T19:14:25.995Z,15.10
2018-03-27T19:16:54.121Z,16.12
2018-03-27T19:19:22.263Z,16.75
2018-03-27T19:21:50.407Z,17.12
2018-03-27T19:24:19.325Z,17.77
2018-03-27T19:26:47.479Z,18.35
2018-03-27T19:29:15.607Z,19.02
2018-03-27T19:31:43.823Z,19.23
2018-03-27T19:34:11.968Z,18.95
2018-03-27T19:36:40.865Z,18.87
2018-03-27T19:39:09.755Z,20.60
2018-03-27T19:41:37.947Z,20.52
2018-03-27T19:44:06.075Z,20.30
2018-03-27T19:46:34.295Z,21.33
2018-03-27T19:49:02.427Z,21.75
2018-03-27T19:51:30.644Z,22.67
2018-03-27T19:53:58.780Z,23.87
2018-03-27T19:56:26.903Z,23.58
2018-03-27T19:58:55.023Z,23.95
2018-03-27T20:01:23.192Z,24.20
2018-03-27T20:03:52.844Z,25.33
2018-03-27T20:06:20.982Z,24.87
2018-03-27T20:08:49.903Z,25.40
2018-03-27T20:11:18.057Z,25.42
2018-03-27T20:13:46.283Z,26.58
2018-03-27T20:16:14.428Z,26.50
2018-03-27T20:18:42.546Z,26.15
2018-03-27T20:21:10.796Z,26.37
2018-03-27T20:23:38.942Z,26.15
2018-03-27T20:26:07.834Z,26.70
2018-03-27T20:28:36.006Z,26.75
2018-03-27T20:31:04.136Z,25.65
2018-03-27T20:33:32.360Z,25.98
2018-03-27T20:36:00.497Z,28.23
2018-03-27T20:38:30.134Z,27.35
2018-03-27T20:40:59.024Z,27.67
2018-03-27T20:43:27.168Z,27.58
2018-03-27T20:45:56.107Z,28.60
2018-03-27T20:48:24.234Z,28.48
2018-03-27T20:50:52.348Z,28.90
2018-03-27T20:53:20.513Z,30.42
2018-03-27T20:55:48.680Z,29.30
2018-03-27T20:58:16.806Z,30.62
2018-03-27T21:00:44.924Z,29.40
2018-03-27T21:03:13.822Z,29.65
2018-03-27T21:05:41.956Z,31.70
2018-03-27T21:08:10.172Z,31.37
2018-03-27T21:10:38.294Z,32.42
2018-03-27T21:13:06.413Z,31.62
2018-03-27T21:15:34.548Z,31.75
2018-03-27T21:18:04.188Z,32.03
2018-03-27T21:20:33.083Z,31.25
2018-03-27T21:23:01.247Z,32.47
2018-03-27T21:25:30.173Z,32.55
2018-03-27T21:27:58.287Z,32.28
2018-03-27T21:30:26.408Z,30.98
2018-03-27T21:32:54.552Z,30.58
2018-03-27T21:35:23.446Z,32.10
2018-03-27T21:37:52.459Z,30.30
2018-03-27T21:40:20.624Z,30.17
2018-03-27T21:42:48.744Z,30.62
2018-03-27T21:45:16.971Z,29.15
2018-03-27T21:47:45.100Z,29.80
2018-03-27T21:50:13.989Z,29.90
2018-03-27T21:52:42.120Z,30.60
2018-03-27T21:55:10.245Z,28.23
2018-03-27T21:57:39.887Z,29.35
2018-03-27T22:00:08.012Z,28.95
2018-03-27T22:02:36.123Z,29.08
2018-03-27T22:05:04.263Z,29.02
2018-03-27T22:07:32.411Z,27.85
2018-03-27T22:10:00.540Z,28.52
2018-03-27T22:12:29.435Z,28.55
2018-03-27T22:14:57.612Z,28.73
2018-03-27T22:17:25.791Z,28.87
2018-03-27T22:19:54.663Z,27.90
2018-03-27T22:22:23.567Z,28.92
2018-03-27T22:24:51.751Z,29.15
2018-03-27T22:27:19.877Z,28.25
2018-03-27T22:29:47.992Z,27.65
2018-03-27T22:32:16.111Z,26.98
2018-03-27T22:34:44.263Z,28.70
2018-03-27T22:37:12.397Z,25.65
2018-03-27T22:39:41.291Z,24.35
2018-03-27T22:42:10.183Z,22.05
2018-03-27T22:44:38.303Z,22.25
2018-03-27T22:47:06.459Z,21.17
2018-03-27T22:49:34.593Z,22.02
2018-03-27T22:52:03.480Z,21.05
2018-03-27T22:54:32.380Z,20.50
2018-03-27T22:57:00.563Z,20.75
2018-03-27T22:59:28.734Z,20.37
2018-03-27T23:01:56.903Z,21.23
2018-03-27T23:04:25.023Z,21.05
2018-03-27T23:06:53.195Z,20.98
2018-03-27T23:09:21.325Z,21.15
2018-03-27T23:11:49.442Z,19.08
2018-03-27T23:14:17.587Z,20.05
2018-03-27T23:16:45.719Z,18.70
2018-03-27T23:19:14.614Z,19.98
2018-03-27T23:21:43.503Z,19.27
2018-03-27T23:24:12.412Z,18.95
2018-03-27T23:26:40.551Z,18.08
2018-03-27T23:29:09.475Z,19.27
2018-03-27T23:31:37.648Z,19.23
2018-03-27T23:34:05.775Z,17.60
2018-03-27T23:36:33.994Z,17.55
2018-03-27T23:39:02.166Z,17.77
2018-03-27T23:41:30.290Z,18.37
2018-03-27T23:43:58.420Z,18.35
2018-03-27T23:46:26.541Z,18.33
2018-03-27T23:48:54.664Z,17.60
2018-03-27T23:51:22.787Z,17.92
2018-03-27T23:53:50.929Z,17.45
2018-03-27T23:56:19.048Z,18.30
2018-03-27T23:58:47.952Z,18.08
